createdAt,value
2019-01-30T00:00:07.401Z,98.79
2019-01-30T00:01:07.307Z,98.79
2019-01-30T00:02:07.271Z,98.83
2019-01-30T00:03:07.234Z,98.72
2019-01-30T00:04:07.196Z,98.72
2019-01-30T00:05:07.199Z,98.72
2019-01-30T00:06:07.160Z,98.94
2019-01-30T00:07:07.079Z,98.98
2019-01-30T00:08:07.086Z,98.72
2019-01-30T00:09:07.049Z,99.04
2019-01-30T00:10:06.978Z,98.83
2019-01-30T00:11:06.928Z,98.83
2019-01-30T00:12:06.892Z,98.83
2019-01-30T00:13:06.857Z,98.72
2019-01-30T00:14:06.859Z,98.94
2019-01-30T00:15:06.821Z,98.94
2019-01-30T00:16:06.739Z,98.72
2019-01-30T00:17:06.701Z,99.15
2019-01-30T00:18:06.664Z,99.25
2019-01-30T00:19:06.645Z,99.04
2019-01-30T00:20:06.649Z,99.36
2019-01-30T00:21:06.552Z,98.94
2019-01-30T00:22:06.517Z,98.62
2019-01-30T00:23:06.474Z,99.36
2019-01-30T00:24:06.437Z,99.25
2019-01-30T00:25:06.546Z,98.83
2019-01-30T00:26:06.360Z,99.36
2019-01-30T00:27:06.327Z,99.04
2019-01-30T00:28:06.284Z,98.94
2019-01-30T00:29:06.314Z,99.15
2019-01-30T00:30:06.279Z,99.15
2019-01-30T00:31:06.172Z,98.83
2019-01-30T00:32:06.142Z,99.19
2019-01-30T00:33:06.091Z,99.19
2019-01-30T00:34:06.057Z,98.83
2019-01-30T00:35:06.082Z,99.04
2019-01-30T00:36:06.020Z,99.30
2019-01-30T00:37:05.988Z,98.98
2019-01-30T00:38:05.904Z,99.19
2019-01-30T00:39:05.870Z,99.30
2019-01-30T00:40:05.831Z,99.13
2019-01-30T00:41:05.846Z,99.08
2019-01-30T00:42:05.754Z,99.08
2019-01-30T00:43:05.716Z,99.08
2019-01-30T00:44:05.676Z,99.08
2019-01-30T00:45:05.641Z,98.77
2019-01-30T00:46:05.655Z,99.40
2019-01-30T00:47:15.203Z,99.36
2019-01-30T00:48:05.523Z,99.46
2019-01-30T00:49:05.499Z,99.57
2019-01-30T00:50:05.451Z,99.46
2019-01-30T00:51:05.457Z,99.67
2019-01-30T00:52:05.372Z,99.36
2019-01-30T00:53:05.337Z,99.57
2019-01-30T00:54:05.345Z,99.67
2019-01-30T00:55:05.257Z,99.67
2019-01-30T00:56:05.217Z,99.57
2019-01-30T00:57:05.183Z,99.78
2019-01-30T00:58:05.192Z,99.67
2019-01-30T00:59:05.259Z,99.46
2019-01-30T01:00:14.360Z,99.78
2019-01-30T01:01:05.028Z,99.46
2019-01-30T01:02:04.993Z,99.46
2019-01-30T01:03:04.951Z,99.30
2019-01-30T01:04:04.960Z,99.36
2019-01-30T01:05:04.875Z,99.25
2019-01-30T01:06:04.881Z,99.36
2019-01-30T01:07:04.801Z,99.51
2019-01-30T01:08:04.807Z,99.40
2019-01-30T01:09:04.723Z,99.51
2019-01-30T01:10:04.685Z,99.40
2019-01-30T01:11:04.700Z,99.40
2019-01-30T01:12:04.613Z,99.51
2019-01-30T01:13:04.613Z,99.34
2019-01-30T01:14:04.532Z,99.44
2019-01-30T01:15:04.494Z,99.44
2019-01-30T01:16:04.455Z,99.44
2019-01-30T01:17:04.422Z,99.55
2019-01-30T01:18:04.429Z,99.34
2019-01-30T01:19:04.351Z,99.02
2019-01-30T01:20:04.304Z,99.24
2019-01-30T01:21:04.267Z,99.34
2019-01-30T01:22:04.293Z,99.24
2019-01-30T01:23:04.193Z,99.24
2019-01-30T01:24:04.150Z,99.34
2019-01-30T01:25:04.112Z,99.34
2019-01-30T01:26:04.119Z,99.34
2019-01-30T01:27:04.038Z,99.34
2019-01-30T01:28:04.916Z,99.44
2019-01-30T01:29:04.010Z,99.55
2019-01-30T01:30:03.918Z,99.24
2019-01-30T01:31:03.890Z,99.34
2019-01-30T01:32:03.858Z,99.55
2019-01-30T01:33:03.809Z,99.34
2019-01-30T01:34:03.818Z,99.34
2019-01-30T01:35:03.728Z,99.44
2019-01-30T01:36:03.693Z,99.34
2019-01-30T01:37:03.657Z,99.34
2019-01-30T01:38:03.628Z,99.66
2019-01-30T01:39:03.624Z,99.24
2019-01-30T01:40:03.542Z,99.34
2019-01-30T01:41:03.585Z,99.44
2019-01-30T01:42:03.517Z,99.55
2019-01-30T01:43:03.424Z,99.49
2019-01-30T01:44:03.448Z,99.44
2019-01-30T01:45:03.354Z,99.34
2019-01-30T01:46:03.315Z,99.34
2019-01-30T01:47:03.272Z,99.55
2019-01-30T01:48:03.271Z,99.87
2019-01-30T01:49:03.267Z,99.76
2019-01-30T01:50:03.163Z,99.40
2019-01-30T01:51:03.123Z,99.66
2019-01-30T01:52:03.113Z,99.76
2019-01-30T01:53:03.081Z,99.99
2019-01-30T01:54:03.917Z,99.87
2019-01-30T01:55:03.021Z,99.72
2019-01-30T01:56:02.930Z,99.51
2019-01-30T01:57:02.931Z,99.82
2019-01-30T01:58:02.850Z,99.51
2019-01-30T01:59:02.825Z,99.82
2019-01-30T02:00:02.775Z,99.93
2019-01-30T02:01:02.742Z,99.82
2019-01-30T02:02:02.747Z,99.88
2019-01-30T02:03:02.658Z,99.88
2019-01-30T02:04:02.618Z,99.57
2019-01-30T02:05:02.580Z,99.57
2019-01-30T02:06:02.550Z,99.78
2019-01-30T02:07:02.553Z,99.67
2019-01-30T02:08:02.473Z,99.67
2019-01-30T02:09:02.474Z,99.46
2019-01-30T02:10:02.395Z,99.67
2019-01-30T02:11:02.354Z,99.88
2019-01-30T02:12:02.315Z,99.52
2019-01-30T02:13:02.281Z,99.88
2019-01-30T02:14:02.466Z,99.31
2019-01-30T02:15:02.199Z,99.31
2019-01-30T02:16:02.160Z,99.63
2019-01-30T02:17:02.167Z,99.73
2019-01-30T02:18:02.151Z,99.46
2019-01-30T02:19:02.052Z,99.67
2019-01-30T02:20:02.016Z,99.63
2019-01-30T02:21:01.970Z,99.99
2019-01-30T02:22:01.934Z,99.88
2019-01-30T02:23:01.961Z,99.88
2019-01-30T02:24:01.863Z,99.73
2019-01-30T02:25:01.831Z,99.95
2019-01-30T02:26:01.783Z,99.46
2019-01-30T02:27:01.740Z,99.36
2019-01-30T02:28:01.823Z,99.36
2019-01-30T02:29:01.675Z,99.25
2019-01-30T02:30:01.641Z,99.36
2019-01-30T02:31:01.593Z,98.98
2019-01-30T02:32:01.556Z,99.19
2019-01-30T02:33:01.549Z,99.40
2019-01-30T02:34:01.512Z,99.19
2019-01-30T02:35:01.487Z,99.57
2019-01-30T02:36:01.401Z,99.36
2019-01-30T02:37:01.358Z,99.25
2019-01-30T02:38:01.343Z,99.46
2019-01-30T02:39:01.334Z,99.40
2019-01-30T02:40:01.249Z,99.30
2019-01-30T02:41:01.213Z,99.25
2019-01-30T02:42:01.213Z,98.98
2019-01-30T02:43:01.137Z,98.88
2019-01-30T02:44:01.098Z,99.08
2019-01-30T02:45:01.057Z,99.02
2019-01-30T02:46:01.020Z,99.19
2019-01-30T02:47:01.025Z,98.71
2019-01-30T02:48:00.943Z,99.13
2019-01-30T02:49:00.999Z,98.97
2019-01-30T02:50:00.868Z,99.02
2019-01-30T02:51:00.833Z,98.86
2019-01-30T02:52:00.789Z,98.82
2019-01-30T02:53:00.755Z,98.92
2019-01-30T02:54:00.763Z,99.07
2019-01-30T02:55:00.673Z,99.07
2019-01-30T02:56:00.633Z,99.18
2019-01-30T02:57:00.599Z,98.92
2019-01-30T02:58:00.621Z,99.18
2019-01-30T02:59:00.518Z,99.18
2019-01-30T03:00:00.480Z,98.82
2019-01-30T03:01:00.450Z,99.02
2019-01-30T03:02:00.470Z,99.24
2019-01-30T03:03:00.368Z,98.71
2019-01-30T03:04:00.327Z,98.71
2019-01-30T03:05:00.313Z,98.60
2019-01-30T03:06:00.252Z,98.82
2019-01-30T03:07:00.261Z,98.82
2019-01-30T03:08:00.177Z,99.34
2019-01-30T03:09:00.144Z,99.02
2019-01-30T03:10:00.178Z,98.82
2019-01-30T03:11:00.116Z,98.88
2019-01-30T03:12:00.025Z,98.66
2019-01-30T03:12:59.981Z,98.77
2019-01-30T03:13:59.945Z,98.39
2019-01-30T03:14:59.907Z,98.98
2019-01-30T03:15:59.972Z,99.13
2019-01-30T03:16:59.836Z,98.82
2019-01-30T03:17:59.797Z,99.02
2019-01-30T03:18:59.762Z,98.92
2019-01-30T03:19:59.836Z,99.13
2019-01-30T03:20:59.738Z,98.92
2019-01-30T03:21:59.640Z,98.92
2019-01-30T03:22:59.604Z,98.86
2019-01-30T03:23:59.563Z,99.07
2019-01-30T03:24:59.524Z,98.82
2019-01-30T03:26:00.323Z,99.02
2019-01-30T03:26:59.448Z,98.82
2019-01-30T03:27:59.407Z,99.07
2019-01-30T03:28:59.375Z,98.97
2019-01-30T03:29:59.393Z,99.02
2019-01-30T03:31:15.979Z,98.97
2019-01-30T03:31:59.263Z,99.34
2019-01-30T03:32:59.321Z,98.71
2019-01-30T03:33:59.191Z,98.82
2019-01-30T03:34:59.196Z,98.97
2019-01-30T03:35:59.102Z,99.02
2019-01-30T03:36:59.112Z,98.86
2019-01-30T03:37:59.028Z,98.82
2019-01-30T03:38:58.989Z,99.18
2019-01-30T03:39:58.951Z,98.92
2019-01-30T03:40:58.927Z,99.39
2019-01-30T03:41:58.943Z,98.33
2019-01-30T03:42:58.846Z,98.44
2019-01-30T03:43:58.798Z,98.65
2019-01-30T03:44:58.758Z,98.44
2019-01-30T03:45:58.755Z,98.65
2019-01-30T03:46:58.971Z,98.75
2019-01-30T03:47:58.775Z,98.86
2019-01-30T03:48:58.782Z,98.75
2019-01-30T03:50:00.325Z,98.75
2019-01-30T03:50:58.531Z,98.97
2019-01-30T03:51:58.495Z,99.07
2019-01-30T03:52:58.506Z,99.07
2019-01-30T03:53:58.413Z,99.18
2019-01-30T03:54:58.374Z,98.75
2019-01-30T03:55:58.333Z,98.75
2019-01-30T03:56:58.300Z,98.44
2019-01-30T03:57:58.300Z,99.39
2019-01-30T03:58:58.271Z,98.44
2019-01-30T03:59:58.192Z,98.82
2019-01-30T04:00:58.151Z,98.86
2019-01-30T04:01:58.104Z,98.75
2019-01-30T04:02:58.120Z,98.86
2019-01-30T04:03:58.028Z,98.44
2019-01-30T04:04:57.989Z,98.33
2019-01-30T04:05:57.954Z,98.55
2019-01-30T04:06:57.923Z,98.44
2019-01-30T04:07:57.916Z,98.23
2019-01-30T04:08:57.894Z,98.23
2019-01-30T04:09:57.850Z,98.23
2019-01-30T04:10:57.762Z,98.44
2019-01-30T04:11:57.719Z,98.65
2019-01-30T04:12:57.681Z,98.23
2019-01-30T04:13:57.643Z,98.65
2019-01-30T04:14:57.994Z,98.23
2019-01-30T04:15:57.584Z,98.44
2019-01-30T04:16:57.534Z,98.44
2019-01-30T04:17:57.501Z,98.44
2019-01-30T04:18:57.457Z,98.23
2019-01-30T04:19:57.463Z,98.33
2019-01-30T04:20:57.377Z,98.44
2019-01-30T04:21:57.336Z,98.44
2019-01-30T04:22:58.325Z,98.44
2019-01-30T04:23:57.274Z,98.33
2019-01-30T04:24:57.272Z,98.23
2019-01-30T04:25:57.240Z,98.33
2019-01-30T04:26:57.190Z,98.23
2019-01-30T04:27:57.105Z,98.44
2019-01-30T04:28:57.066Z,98.44
2019-01-30T04:29:57.027Z,98.29
2019-01-30T04:30:57.035Z,98.44
2019-01-30T04:31:57.015Z,98.13
2019-01-30T04:32:56.918Z,97.75
2019-01-30T04:33:56.880Z,98.13
2019-01-30T04:34:56.840Z,98.33
2019-01-30T04:35:56.798Z,97.81
2019-01-30T04:36:56.808Z,98.44
2019-01-30T04:37:56.722Z,98.13
2019-01-30T04:38:56.730Z,97.81
2019-01-30T04:39:56.652Z,98.23
2019-01-30T04:40:56.617Z,98.33
2019-01-30T04:41:56.644Z,97.81
2019-01-30T04:42:56.530Z,98.02
2019-01-30T04:43:56.536Z,98.44
2019-01-30T04:44:56.453Z,98.13
2019-01-30T04:45:56.411Z,98.33
2019-01-30T04:46:56.375Z,98.02
2019-01-30T04:47:56.381Z,97.81
2019-01-30T04:48:56.339Z,97.71
2019-01-30T04:49:56.258Z,98.02
2019-01-30T04:50:56.217Z,97.96
2019-01-30T04:51:56.190Z,97.91
2019-01-30T04:52:56.181Z,97.91
2019-01-30T04:53:56.162Z,97.81
2019-01-30T04:54:56.078Z,97.81
2019-01-30T04:55:56.030Z,97.39
2019-01-30T04:56:55.994Z,97.91
2019-01-30T04:57:58.198Z,97.91
2019-01-30T04:58:55.970Z,98.02
2019-01-30T04:59:55.874Z,97.71
2019-01-30T05:00:55.839Z,97.91
2019-01-30T05:01:55.799Z,97.71
2019-01-30T05:02:55.758Z,97.81
2019-01-30T05:03:55.821Z,97.81
2019-01-30T05:04:55.683Z,98.02
2019-01-30T05:05:55.646Z,97.81
2019-01-30T05:06:55.606Z,98.13
2019-01-30T05:07:55.564Z,98.02
2019-01-30T05:08:56.030Z,97.91
2019-01-30T05:09:55.493Z,97.81
2019-01-30T05:10:55.465Z,97.91
2019-01-30T05:11:56.989Z,97.49
2019-01-30T05:12:55.460Z,97.81
2019-01-30T05:13:55.340Z,97.60
2019-01-30T05:14:55.294Z,97.60
2019-01-30T05:15:55.303Z,97.71
2019-01-30T05:16:55.222Z,97.60
2019-01-30T05:17:55.244Z,97.71
2019-01-30T05:18:55.146Z,97.39
2019-01-30T05:19:55.146Z,97.71
2019-01-30T05:20:55.105Z,97.71
2019-01-30T05:21:55.074Z,97.81
2019-01-30T05:22:54.991Z,96.69
2019-01-30T05:23:54.949Z,96.86
2019-01-30T05:24:54.915Z,96.65
2019-01-30T05:25:54.924Z,96.86
2019-01-30T05:26:54.833Z,97.91
2019-01-30T05:27:54.792Z,97.28
2019-01-30T05:28:54.756Z,97.81
2019-01-30T05:29:55.421Z,96.86
2019-01-30T05:30:54.729Z,96.86
2019-01-30T05:32:00.964Z,96.86
2019-01-30T05:32:54.603Z,97.28
2019-01-30T05:33:54.607Z,97.11
2019-01-30T05:34:54.529Z,96.65
2019-01-30T05:35:54.525Z,96.75
2019-01-30T05:36:54.453Z,96.97
2019-01-30T05:37:54.461Z,96.97
2019-01-30T05:38:54.478Z,96.97
2019-01-30T05:39:54.333Z,96.86
2019-01-30T05:40:54.387Z,97.71
2019-01-30T05:41:54.259Z,97.17
2019-01-30T05:42:54.217Z,96.86
2019-01-30T05:43:54.192Z,96.97
2019-01-30T05:44:54.142Z,97.07
2019-01-30T05:45:54.143Z,96.86
2019-01-30T05:46:54.134Z,96.97
2019-01-30T05:47:54.024Z,96.91
2019-01-30T05:48:53.984Z,96.97
2019-01-30T05:49:53.946Z,96.86
2019-01-30T05:50:53.910Z,96.65
2019-01-30T05:51:53.982Z,96.69
2019-01-30T05:52:53.846Z,96.69
2019-01-30T05:53:53.796Z,96.69
2019-01-30T05:54:53.816Z,96.75
2019-01-30T05:55:53.720Z,96.75
2019-01-30T05:56:53.678Z,96.97
2019-01-30T05:57:53.688Z,97.17
2019-01-30T05:59:00.636Z,96.86
2019-01-30T05:59:53.563Z,96.75
2019-01-30T06:00:53.524Z,96.65
2019-01-30T06:01:53.488Z,96.65
2019-01-30T06:02:53.494Z,96.75
2019-01-30T06:03:53.407Z,96.91
2019-01-30T06:04:53.375Z,96.75
2019-01-30T06:05:53.331Z,96.65
2019-01-30T06:06:53.300Z,96.86
2019-01-30T06:07:53.305Z,96.75
2019-01-30T06:08:53.214Z,96.65
2019-01-30T06:09:53.176Z,97.01
2019-01-30T06:10:53.194Z,96.75
2019-01-30T06:11:53.098Z,96.91
2019-01-30T06:12:53.065Z,97.01
2019-01-30T06:13:53.035Z,96.75
2019-01-30T06:14:52.988Z,96.75
2019-01-30T06:15:52.989Z,97.07
2019-01-30T06:16:52.910Z,96.86
2019-01-30T06:17:52.872Z,96.65
2019-01-30T06:18:52.886Z,96.97
2019-01-30T06:19:52.800Z,96.65
2019-01-30T06:20:52.751Z,96.65
2019-01-30T06:21:52.715Z,96.55
2019-01-30T06:22:52.678Z,96.33
2019-01-30T06:23:52.690Z,96.55
2019-01-30T06:24:52.595Z,96.55
2019-01-30T06:25:52.565Z,96.55
2019-01-30T06:26:52.525Z,96.75
2019-01-30T06:27:52.482Z,96.33
2019-01-30T06:28:52.658Z,96.12
2019-01-30T06:29:52.403Z,96.23
2019-01-30T06:30:52.375Z,96.44
2019-01-30T06:31:52.327Z,96.44
2019-01-30T06:32:52.287Z,96.33
2019-01-30T06:33:52.309Z,96.55
2019-01-30T06:34:52.245Z,96.44
2019-01-30T06:35:52.172Z,96.33
2019-01-30T06:36:52.137Z,96.44
2019-01-30T06:37:52.099Z,96.55
2019-01-30T06:38:52.101Z,96.55
2019-01-30T06:39:52.024Z,96.75
2019-01-30T06:40:52.944Z,96.39
2019-01-30T06:41:51.980Z,97.13
2019-01-30T06:42:51.908Z,96.71
2019-01-30T06:43:51.879Z,96.61
2019-01-30T06:44:51.831Z,96.61
2019-01-30T06:45:51.785Z,96.45
2019-01-30T06:46:51.892Z,96.81
2019-01-30T06:47:51.712Z,96.45
2019-01-30T06:48:51.669Z,96.29
2019-01-30T06:49:51.680Z,95.97
2019-01-30T06:50:51.607Z,96.08
2019-01-30T06:51:51.600Z,95.97
2019-01-30T06:52:51.565Z,95.51
2019-01-30T06:53:51.478Z,95.45
2019-01-30T06:54:51.444Z,94.92
2019-01-30T06:55:51.429Z,95.30
2019-01-30T06:56:51.363Z,95.24
2019-01-30T06:57:51.371Z,95.34
2019-01-30T06:58:51.286Z,95.09
2019-01-30T06:59:51.262Z,95.03
2019-01-30T07:00:52.819Z,94.98
2019-01-30T07:01:51.177Z,95.03
2019-01-30T07:02:51.195Z,95.34
2019-01-30T07:03:51.097Z,94.98
2019-01-30T07:04:51.096Z,95.13
2019-01-30T07:05:51.018Z,94.98
2019-01-30T07:06:50.979Z,94.78
2019-01-30T07:07:50.949Z,94.35
2019-01-30T07:08:50.968Z,94.56
2019-01-30T07:09:50.914Z,94.78
2019-01-30T07:10:50.827Z,94.35
2019-01-30T07:11:50.790Z,94.25
2019-01-30T07:12:50.752Z,94.25
2019-01-30T07:13:50.786Z,93.93
2019-01-30T07:14:50.729Z,93.93
2019-01-30T07:15:50.692Z,94.25
2019-01-30T07:16:50.640Z,94.25
2019-01-30T07:17:50.572Z,94.14
2019-01-30T07:18:50.541Z,94.10
2019-01-30T07:19:50.483Z,93.37
2019-01-30T07:20:50.499Z,93.47
2019-01-30T07:21:50.412Z,93.79
2019-01-30T07:22:50.373Z,93.57
2019-01-30T07:23:50.851Z,93.99
2019-01-30T07:24:50.294Z,93.26
2019-01-30T07:25:50.298Z,93.05
2019-01-30T07:26:50.213Z,93.22
2019-01-30T07:27:50.173Z,92.80
2019-01-30T07:28:50.137Z,92.80
2019-01-30T07:29:50.149Z,92.27
2019-01-30T07:30:50.068Z,92.58
2019-01-30T07:31:50.032Z,92.38
2019-01-30T07:32:49.987Z,92.27
2019-01-30T07:33:49.953Z,92.48
2019-01-30T07:34:49.951Z,92.06
2019-01-30T07:35:49.876Z,91.39
2019-01-30T07:36:49.880Z,91.11
2019-01-30T07:37:49.839Z,91.60
2019-01-30T07:38:49.762Z,91.49
2019-01-30T07:39:49.767Z,91.81
2019-01-30T07:40:49.683Z,91.71
2019-01-30T07:41:49.641Z,91.39
2019-01-30T07:42:49.607Z,90.86
2019-01-30T07:43:49.609Z,90.97
2019-01-30T07:44:50.722Z,91.03
2019-01-30T07:45:49.533Z,91.03
2019-01-30T07:46:49.495Z,91.14
2019-01-30T07:47:49.428Z,90.92
2019-01-30T07:48:49.374Z,90.72
2019-01-30T07:49:49.342Z,90.30
2019-01-30T07:50:49.339Z,90.19
2019-01-30T07:51:49.263Z,89.98
2019-01-30T07:52:49.226Z,90.19
2019-01-30T07:53:49.186Z,89.73
2019-01-30T07:54:49.220Z,89.62
2019-01-30T07:55:49.152Z,89.31
2019-01-30T07:56:49.072Z,89.31
2019-01-30T07:57:49.036Z,89.62
2019-01-30T07:58:48.998Z,89.42
2019-01-30T07:59:49.049Z,89.31
2019-01-30T08:00:48.928Z,88.68
2019-01-30T08:01:48.889Z,89.06
2019-01-30T08:02:53.431Z,89.21
2019-01-30T08:03:48.809Z,89.06
2019-01-30T08:04:48.820Z,88.75
2019-01-30T08:05:48.772Z,88.54
2019-01-30T08:06:48.743Z,89.27
2019-01-30T08:07:48.707Z,88.85
2019-01-30T08:08:49.703Z,88.81
2019-01-30T08:09:48.598Z,89.54
2019-01-30T08:10:48.666Z,89.23
2019-01-30T08:11:48.569Z,88.71
2019-01-30T08:12:48.477Z,88.81
2019-01-30T08:13:48.434Z,88.81
2019-01-30T08:14:48.403Z,88.49
2019-01-30T08:15:48.364Z,87.97
2019-01-30T08:16:48.375Z,87.97
2019-01-30T08:17:48.287Z,87.20
2019-01-30T08:18:48.291Z,88.04
2019-01-30T08:19:48.215Z,87.62
2019-01-30T08:20:48.947Z,87.72
2019-01-30T08:21:48.180Z,87.30
2019-01-30T08:22:48.135Z,86.57
2019-01-30T08:23:48.198Z,87.09
2019-01-30T08:24:48.151Z,87.26
2019-01-30T08:25:48.262Z,87.37
2019-01-30T08:26:47.956Z,87.26
2019-01-30T08:27:47.919Z,86.63
2019-01-30T08:28:48.070Z,86.85
2019-01-30T08:29:48.207Z,86.74
2019-01-30T08:30:47.885Z,87.05
2019-01-30T08:31:47.774Z,87.26
2019-01-30T08:32:47.780Z,86.85
2019-01-30T08:33:47.739Z,87.12
2019-01-30T08:34:47.694Z,87.33
2019-01-30T08:35:47.627Z,86.70
2019-01-30T08:36:47.591Z,86.70
2019-01-30T08:37:47.548Z,86.60
2019-01-30T08:38:49.084Z,86.60
2019-01-30T08:39:47.514Z,86.60
2019-01-30T08:40:47.439Z,86.49
2019-01-30T08:41:47.407Z,86.28
2019-01-30T08:42:47.365Z,86.60
2019-01-30T08:43:47.334Z,86.28
2019-01-30T08:44:47.468Z,86.04
2019-01-30T08:45:47.306Z,86.28
2019-01-30T08:46:47.225Z,86.04
2019-01-30T08:47:47.183Z,86.24
2019-01-30T08:48:47.148Z,85.51
2019-01-30T08:49:47.112Z,85.51
2019-01-30T08:50:47.118Z,86.45
2019-01-30T08:51:47.037Z,86.24
2019-01-30T08:52:47.003Z,86.10
2019-01-30T08:53:46.965Z,85.93
2019-01-30T08:54:46.929Z,85.16
2019-01-30T08:55:46.936Z,84.84
2019-01-30T08:56:53.125Z,85.41
2019-01-30T08:57:46.822Z,85.30
2019-01-30T08:58:46.781Z,84.99
2019-01-30T08:59:46.748Z,84.78
2019-01-30T09:00:46.786Z,84.74
2019-01-30T09:01:46.671Z,85.16
2019-01-30T09:02:46.654Z,84.95
2019-01-30T09:03:46.601Z,85.16
2019-01-30T09:04:46.571Z,84.95
2019-01-30T09:05:46.579Z,84.22
2019-01-30T09:06:46.490Z,84.53
2019-01-30T09:07:46.463Z,84.74
2019-01-30T09:08:46.429Z,83.90
2019-01-30T09:09:46.382Z,83.69
2019-01-30T09:10:46.397Z,84.84
2019-01-30T09:11:46.309Z,84.84
2019-01-30T09:12:46.313Z,84.17
2019-01-30T09:13:46.280Z,83.38
2019-01-30T09:14:46.214Z,83.76
2019-01-30T09:15:46.164Z,84.70
2019-01-30T09:16:46.179Z,84.70
2019-01-30T09:17:48.857Z,83.80
2019-01-30T09:18:46.053Z,83.48
2019-01-30T09:19:46.032Z,84.22
2019-01-30T09:20:46.021Z,84.22
2019-01-30T09:21:45.959Z,83.59
2019-01-30T09:22:45.913Z,84.42
2019-01-30T09:23:45.916Z,83.44
2019-01-30T09:24:45.916Z,83.48
2019-01-30T09:25:45.827Z,83.55
2019-01-30T09:26:45.776Z,83.27
2019-01-30T09:27:45.741Z,83.38
2019-01-30T09:28:45.692Z,83.48
2019-01-30T09:29:45.702Z,82.40
2019-01-30T09:30:45.665Z,82.82
2019-01-30T09:31:45.584Z,82.86
2019-01-30T09:32:45.578Z,82.92
2019-01-30T09:33:45.575Z,83.23
2019-01-30T09:34:45.637Z,82.82
2019-01-30T09:35:45.484Z,83.03
2019-01-30T09:36:45.400Z,83.34
2019-01-30T09:37:45.448Z,83.23
2019-01-30T09:38:45.338Z,83.13
2019-01-30T09:39:45.310Z,82.92
2019-01-30T09:40:45.304Z,82.82
2019-01-30T09:41:45.239Z,81.77
2019-01-30T09:42:45.712Z,82.09
2019-01-30T09:43:45.158Z,82.26
2019-01-30T09:44:45.115Z,83.03
2019-01-30T09:45:45.119Z,82.19
2019-01-30T09:46:45.092Z,82.09
2019-01-30T09:47:45.033Z,83.20
2019-01-30T09:48:44.979Z,81.95
2019-01-30T09:49:44.932Z,83.44
2019-01-30T09:50:45.001Z,82.60
2019-01-30T09:51:45.451Z,83.34
2019-01-30T09:52:44.829Z,83.44
2019-01-30T09:53:44.845Z,82.78
2019-01-30T09:54:44.749Z,81.95
2019-01-30T09:55:44.799Z,81.63
2019-01-30T09:56:44.731Z,81.63
2019-01-30T09:57:44.642Z,81.63
2019-01-30T09:58:44.609Z,81.63
2019-01-30T09:59:44.567Z,81.00
2019-01-30T10:00:44.531Z,80.86
2019-01-30T10:01:44.547Z,80.44
2019-01-30T10:02:44.459Z,79.29
2019-01-30T10:03:44.424Z,79.19
2019-01-30T10:04:44.388Z,78.67
2019-01-30T10:05:44.350Z,78.35
2019-01-30T10:06:44.365Z,77.90
2019-01-30T10:07:44.278Z,78.14
2019-01-30T10:08:44.295Z,77.62
2019-01-30T10:09:44.203Z,77.94
2019-01-30T10:10:44.167Z,77.94
2019-01-30T10:11:44.188Z,77.48
2019-01-30T10:12:44.093Z,78.42
2019-01-30T10:13:44.059Z,77.80
2019-01-30T10:14:44.102Z,78.00
2019-01-30T10:15:43.988Z,76.75
2019-01-30T10:16:44.004Z,76.54
2019-01-30T10:17:43.921Z,76.96
2019-01-30T10:18:43.877Z,76.23
2019-01-30T10:19:43.838Z,75.71
2019-01-30T10:20:43.863Z,76.33
2019-01-30T10:21:43.807Z,75.81
2019-01-30T10:22:43.733Z,75.71
2019-01-30T10:23:43.739Z,75.71
2019-01-30T10:24:43.709Z,75.60
2019-01-30T10:25:43.677Z,75.71
2019-01-30T10:26:43.586Z,75.18
2019-01-30T10:27:43.548Z,74.56
2019-01-30T10:28:43.517Z,74.04
2019-01-30T10:29:43.478Z,74.56
2019-01-30T10:30:43.482Z,73.93
2019-01-30T10:31:43.410Z,74.56
2019-01-30T10:32:43.367Z,74.24
2019-01-30T10:33:46.488Z,74.42
2019-01-30T10:34:43.300Z,74.73
2019-01-30T10:35:43.298Z,74.52
2019-01-30T10:36:43.270Z,75.46
2019-01-30T10:37:43.189Z,75.46
2019-01-30T10:38:43.151Z,75.63
2019-01-30T10:39:43.115Z,75.98
2019-01-30T10:40:43.125Z,74.32
2019-01-30T10:41:43.093Z,72.64
2019-01-30T10:42:43.006Z,73.07
2019-01-30T10:43:43.019Z,73.07
2019-01-30T10:44:42.932Z,72.92
2019-01-30T10:45:42.938Z,72.41
2019-01-30T10:46:42.922Z,72.92
2019-01-30T10:47:43.456Z,72.82
2019-01-30T10:48:42.788Z,72.51
2019-01-30T10:49:42.752Z,73.03
2019-01-30T10:50:42.723Z,72.82
2019-01-30T10:51:43.367Z,72.89
2019-01-30T10:52:42.686Z,73.13
2019-01-30T10:53:42.612Z,72.92
2019-01-30T10:54:42.576Z,73.55
2019-01-30T10:55:42.544Z,73.76
2019-01-30T10:56:42.762Z,75.01
2019-01-30T10:57:42.467Z,73.55
2019-01-30T10:58:42.486Z,73.13
2019-01-30T10:59:42.394Z,73.52
2019-01-30T11:00:42.360Z,73.03
2019-01-30T11:01:42.326Z,72.58
2019-01-30T11:02:42.287Z,73.41
2019-01-30T11:03:42.298Z,73.52
2019-01-30T11:04:42.216Z,72.78
2019-01-30T11:05:44.213Z,72.78
2019-01-30T11:06:42.147Z,71.50
2019-01-30T11:07:42.114Z,71.92
2019-01-30T11:08:42.114Z,72.55
2019-01-30T11:09:42.066Z,72.44
2019-01-30T11:10:42.000Z,72.34
2019-01-30T11:11:41.967Z,72.96
2019-01-30T11:12:41.946Z,72.13
2019-01-30T11:13:41.941Z,72.02
2019-01-30T11:14:41.862Z,72.13
2019-01-30T11:15:41.821Z,71.71
2019-01-30T11:16:41.788Z,71.19
2019-01-30T11:17:41.752Z,71.26
2019-01-30T11:18:41.793Z,70.74
2019-01-30T11:19:41.678Z,70.84
2019-01-30T11:20:41.701Z,71.37
2019-01-30T11:21:41.680Z,70.74
2019-01-30T11:22:41.574Z,71.05
2019-01-30T11:23:41.554Z,70.61
2019-01-30T11:24:41.504Z,71.23
2019-01-30T11:25:41.504Z,71.02
2019-01-30T11:26:41.476Z,71.44
2019-01-30T11:27:41.393Z,71.33
2019-01-30T11:28:41.373Z,70.92
2019-01-30T11:29:41.326Z,71.44
2019-01-30T11:30:41.344Z,70.68
2019-01-30T11:31:41.304Z,70.50
2019-01-30T11:32:41.255Z,70.50
2019-01-30T11:33:41.189Z,70.26
2019-01-30T11:34:41.160Z,69.67
2019-01-30T11:35:41.157Z,70.26
2019-01-30T11:36:41.152Z,69.67
2019-01-30T11:37:41.043Z,69.46
2019-01-30T11:38:41.060Z,69.77
2019-01-30T11:39:40.974Z,69.53
2019-01-30T11:40:40.940Z,68.80
2019-01-30T11:41:40.905Z,69.32
2019-01-30T11:42:40.939Z,69.64
2019-01-30T11:43:40.835Z,68.28
2019-01-30T11:44:40.804Z,68.70
2019-01-30T11:45:40.767Z,69.64
2019-01-30T11:46:40.730Z,69.32
2019-01-30T11:47:40.734Z,68.84
2019-01-30T11:48:40.659Z,68.42
2019-01-30T11:49:40.628Z,69.04
2019-01-30T11:50:40.646Z,68.91
2019-01-30T11:51:41.323Z,68.84
2019-01-30T11:52:41.481Z,69.04
2019-01-30T11:53:41.462Z,68.52
2019-01-30T11:54:40.968Z,69.15
2019-01-30T11:55:41.464Z,67.79
2019-01-30T11:56:40.378Z,68.42
2019-01-30T11:57:40.343Z,68.63
2019-01-30T11:58:40.322Z,68.70
2019-01-30T11:59:48.959Z,67.76
2019-01-30T12:00:40.290Z,68.52
2019-01-30T12:01:40.206Z,68.38
2019-01-30T12:02:47.676Z,67.66
2019-01-30T12:03:40.182Z,67.69
2019-01-30T12:04:40.101Z,67.86
2019-01-30T12:05:40.100Z,68.18
2019-01-30T12:06:40.119Z,67.73
2019-01-30T12:07:39.994Z,68.15
2019-01-30T12:08:40.155Z,68.53
2019-01-30T12:09:40.895Z,66.90
2019-01-30T12:10:39.950Z,67.00
2019-01-30T12:11:39.865Z,67.00
2019-01-30T12:12:39.865Z,66.35
2019-01-30T12:13:39.786Z,66.56
2019-01-30T12:14:39.773Z,66.35
2019-01-30T12:15:40.519Z,66.03
2019-01-30T12:16:39.685Z,65.41
2019-01-30T12:17:39.694Z,65.83
2019-01-30T12:18:39.660Z,66.03
2019-01-30T12:19:39.581Z,66.24
2019-01-30T12:20:39.611Z,64.97
2019-01-30T12:21:39.514Z,65.00
2019-01-30T12:22:39.523Z,66.45
2019-01-30T12:23:39.439Z,65.41
2019-01-30T12:24:39.423Z,65.93
2019-01-30T12:25:39.997Z,65.00
2019-01-30T12:26:39.384Z,65.10
2019-01-30T12:27:39.356Z,65.17
2019-01-30T12:28:39.269Z,65.31
2019-01-30T12:29:39.236Z,65.20
2019-01-30T12:30:39.273Z,65.07
2019-01-30T12:31:39.174Z,64.97
2019-01-30T12:32:39.130Z,64.86
2019-01-30T12:33:39.097Z,64.76
2019-01-30T12:34:39.064Z,64.97
2019-01-30T12:35:39.094Z,65.04
2019-01-30T12:36:38.998Z,65.14
2019-01-30T12:37:38.965Z,64.83
2019-01-30T12:38:39.898Z,63.79
2019-01-30T12:39:38.889Z,63.41
2019-01-30T12:40:38.935Z,63.72
2019-01-30T12:41:38.852Z,64.03
2019-01-30T12:42:38.791Z,64.24
2019-01-30T12:43:38.755Z,63.62
2019-01-30T12:44:38.819Z,63.41
2019-01-30T12:45:39.994Z,63.51
2019-01-30T12:46:38.672Z,62.99
2019-01-30T12:47:38.619Z,63.09
2019-01-30T12:48:39.404Z,62.78
2019-01-30T12:49:38.550Z,61.85
2019-01-30T12:50:38.562Z,61.74
2019-01-30T12:51:38.492Z,63.09